Alys Beach, FL

11:23 AM CDT on July 26, 2016 (GMT -0500)
Northwest Florida Beaches International | | Change Station
Active Advisory: Coastal Hazard Statement

Elev 69 ft 30.36 °N, 85.80 °W | Updated 4 minutes ago

Light Rain
Light Rain
82 °F
Feels Like 90 °F
N
12
Wind Variable Wind from South
Gusts 25 mph

Today
High -- | Low -- °F
--% Chance of Precip.
Yesterday
High -- | Low -- °F
Precip. -- in
Pressure 30.02 in
Visibility 3.0 miles
Clouds Few 1700 ft
Mostly Cloudy 2300 ft
Mostly Cloudy 3200 ft
Heat Index 90 °F
Dew Point 77 °F
Humidity 85%
Rainfall 0.30 in
Snow Depth Not available.
5:59 AM 7:41 PM
Waning Gibbous, 53% visible
SPECI KECP 261619Z 18010G22KT 3SM VCTS -RA FEW017 BKN023 BKN032 28/25 A3002 RMK AO2 LTG DSNT SE P0004 T02780250
Pressure 30.02 in
Visibility 3.0 miles
Clouds Few 1700 ft
Mostly Cloudy 2300 ft
Mostly Cloudy 3200 ft
Heat Index 90 °F
Dew Point 77 °F
Humidity 85%
Rainfall 0.30 in
Snow Depth Not available.
5:59 AM 7:41 PM
Waning Gibbous, 53% visible
SPECI KECP 261619Z 18010G22KT 3SM VCTS -RA FEW017 BKN023 BKN032 28/25 A3002 RMK AO2 LTG DSNT SE P0004 T02780250

10-Day Weather Forecast

Almanac

Astronomy

Jul. 26, 2016 Rise Set
Actual Time
Civil Twilight
Nautical Twilight
Astronomical Twilight
Moon
Length of Visible Light
Length of Day
Tomorrow will be .
, % of the Moon is Illuminated

Today's Extremes

State Highs State Lows

Community

WunderPhotos

Upload Photos

1,927,626 photos uploaded!

WunderBlog® & News

Nearby

Air Quality

  Air Quality AQ Index Pollutant
Not available.

Snow Depth

Station Depth Elevation

Earthquake Activity

City Distance Mag. Time & Date
Minimum magnitude displayed is 2.5.

Coastal Water Temperatures

Place Temperature

Stations

Nearby Weather Stations

Station Location Temp. Windchill Dew Point Humidity Wind Precip. Elev Updated Type
                   

Watches & Warnings

Coastal Hazard Statement
Issued: 8:41 AM CDT Jul. 26, 2016 – National Weather Service

... High rip current risk in effect until 8 PM EDT /7 PM CDT/ this
evening...

The National Weather Service in Tallahassee has issued a high rip
current risk... which is in effect until 8 PM EDT /7 PM CDT/ this
evening.

* Timing... through this evening

* impacts... dangerous rip currents possible

Precautionary/preparedness actions...

There is a high risk of rip currents.

Rip currents are powerful channels of water flowing quickly away
from shore... which occur most often at low spots or breaks in The
Sandbar and in the vicinity of structures such as groins...
jetties and piers. Heed the advice of lifeguards... beach patrol
flags and signs.

If you become caught in a rip current... Yell for help. Remain
calm... do not exhaust yourself and stay afloat while waiting for
help. If you have to swim out of a rip current... swim parallel to
shore and back toward the beach when possible. Do not attempt to
swim directly against a rip current as you will tire quickly.